sensor_id;sensor_type;location;lat;lon;timestamp;P1;durP1;ratioP1;P2;durP2;ratioP2
36001;SDS011;22070;50.922;5.430;2023-12-07T00:00:36;38.20;;;9.23;;
36001;SDS011;22070;50.922;5.430;2023-12-07T00:03:02;33.10;;;9.75;;
36001;SDS011;22070;50.922;5.430;2023-12-07T00:05:27;30.07;;;8.00;;
36001;SDS011;22070;50.922;5.430;2023-12-07T00:07:53;23.05;;;7.38;;
36001;SDS011;22070;50.922;5.430;2023-12-07T00:10:19;46.53;;;9.07;;
36001;SDS011;22070;50.922;5.430;2023-12-07T00:12:44;26.30;;;8.20;;
36001;SDS011;22070;50.922;5.430;2023-12-07T00:15:10;38.97;;;9.02;;
36001;SDS011;22070;50.922;5.430;2023-12-07T00:17:36;34.83;;;8.97;;
36001;SDS011;22070;50.922;5.430;2023-12-07T00:20:01;28.67;;;8.50;;
36001;SDS011;22070;50.922;5.430;2023-12-07T00:22:29;30.83;;;8.68;;
36001;SDS011;22070;50.922;5.430;2023-12-07T00:24:55;33.47;;;8.07;;
36001;SDS011;22070;50.922;5.430;2023-12-07T00:27:20;34.22;;;7.18;;
36001;SDS011;22070;50.922;5.430;2023-12-07T00:29:46;20.70;;;5.17;;
36001;SDS011;22070;50.922;5.430;2023-12-07T00:32:11;24.42;;;6.53;;
36001;SDS011;22070;50.922;5.430;2023-12-07T00:34:37;22.87;;;7.27;;
36001;SDS011;22070;50.922;5.430;2023-12-07T00:37:03;26.63;;;7.43;;
36001;SDS011;22070;50.922;5.430;2023-12-07T00:39:28;25.57;;;6.90;;
36001;SDS011;22070;50.922;5.430;2023-12-07T00:41:54;28.97;;;5.27;;
36001;SDS011;22070;50.922;5.430;2023-12-07T00:44:20;18.60;;;7.10;;
36001;SDS011;22070;50.922;5.430;2023-12-07T00:46:45;24.40;;;7.03;;
36001;SDS011;22070;50.922;5.430;2023-12-07T00:49:11;28.60;;;7.80;;
36001;SDS011;22070;50.922;5.430;2023-12-07T00:51:37;29.43;;;7.57;;
36001;SDS011;22070;50.922;5.430;2023-12-07T00:54:03;20.13;;;7.03;;
36001;SDS011;22070;50.922;5.430;2023-12-07T00:56:28;24.03;;;7.80;;
36001;SDS011;22070;50.922;5.430;2023-12-07T00:58:54;26.17;;;7.50;;
36001;SDS011;22070;50.922;5.430;2023-12-07T01:01:20;31.63;;;8.10;;
36001;SDS011;22070;50.922;5.430;2023-12-07T01:03:45;29.13;;;7.83;;
36001;SDS011;22070;50.922;5.430;2023-12-07T01:06:11;26.27;;;5.73;;
36001;SDS011;22070;50.922;5.430;2023-12-07T01:08:37;26.77;;;8.13;;
36001;SDS011;22070;50.922;5.430;2023-12-07T01:11:03;30.83;;;8.00;;
36001;SDS011;22070;50.922;5.430;2023-12-07T01:13:29;29.30;;;7.78;;
36001;SDS011;22070;50.922;5.430;2023-12-07T01:15:56;31.58;;;7.57;;
36001;SDS011;22070;50.922;5.430;2023-12-07T01:18:22;23.90;;;7.47;;
36001;SDS011;22070;50.922;5.430;2023-12-07T01:20:48;31.60;;;7.60;;
36001;SDS011;22070;50.922;5.430;2023-12-07T01:23:14;40.57;;;8.77;;
36001;SDS011;22070;50.922;5.430;2023-12-07T01:25:39;28.25;;;8.07;;
36001;SDS011;22070;50.922;5.430;2023-12-07T01:28:05;30.33;;;7.67;;
36001;SDS011;22070;50.922;5.430;2023-12-07T01:30:31;25.00;;;7.50;;
36001;SDS011;22070;50.922;5.430;2023-12-07T01:32:56;30.57;;;8.33;;
36001;SDS011;22070;50.922;5.430;2023-12-07T01:35:22;32.60;;;7.30;;
36001;SDS011;22070;50.922;5.430;2023-12-07T01:37:48;28.80;;;8.40;;
36001;SDS011;22070;50.922;5.430;2023-12-07T01:40:14;21.33;;;7.22;;
36001;SDS011;22070;50.922;5.430;2023-12-07T01:42:40;31.83;;;7.43;;
36001;SDS011;22070;50.922;5.430;2023-12-07T01:45:14;21.63;;;7.75;;
36001;SDS011;22070;50.922;5.430;2023-12-07T01:47:39;31.60;;;8.25;;
36001;SDS011;22070;50.922;5.430;2023-12-07T01:50:06;27.30;;;8.55;;
36001;SDS011;22070;50.922;5.430;2023-12-07T01:52:35;32.60;;;8.32;;
36001;SDS011;22070;50.922;5.430;2023-12-07T01:55:05;22.98;;;7.25;;
36001;SDS011;22070;50.922;5.430;2023-12-07T01:57:33;23.23;;;7.43;;
36001;SDS011;22070;50.922;5.430;2023-12-07T02:00:00;27.63;;;6.38;;
36001;SDS011;22070;50.922;5.430;2023-12-07T02:02:26;19.38;;;6.88;;
36001;SDS011;22070;50.922;5.430;2023-12-07T02:04:52;26.13;;;7.33;;
36001;SDS011;22070;50.922;5.430;2023-12-07T02:07:17;19.37;;;6.43;;
36001;SDS011;22070;50.922;5.430;2023-12-07T02:09:44;24.00;;;6.80;;
36001;SDS011;22070;50.922;5.430;2023-12-07T02:12:10;26.63;;;7.37;;
36001;SDS011;22070;50.922;5.430;2023-12-07T02:14:35;26.40;;;6.75;;
36001;SDS011;22070;50.922;5.430;2023-12-07T02:17:05;23.73;;;6.93;;
36001;SDS011;22070;50.922;5.430;2023-12-07T02:22:24;23.08;;;7.05;;
36001;SDS011;22070;50.922;5.430;2023-12-07T02:27:40;21.50;;;7.47;;
36001;SDS011;22070;50.922;5.430;2023-12-07T02:30:12;22.20;;;7.38;;
36001;SDS011;22070;50.922;5.430;2023-12-07T02:32:40;18.65;;;7.53;;
36001;SDS011;22070;50.922;5.430;2023-12-07T02:35:09;23.90;;;7.00;;
36001;SDS011;22070;50.922;5.430;2023-12-07T02:37:40;22.77;;;6.07;;
36001;SDS011;22070;50.922;5.430;2023-12-07T02:40:11;18.65;;;6.60;;
36001;SDS011;22070;50.922;5.430;2023-12-07T02:42:40;26.33;;;7.03;;
36001;SDS011;22070;50.922;5.430;2023-12-07T02:45:08;22.77;;;7.22;;
36001;SDS011;22070;50.922;5.430;2023-12-07T02:47:34;23.92;;;6.85;;
36001;SDS011;22070;50.922;5.430;2023-12-07T02:50:01;23.55;;;7.78;;
36001;SDS011;22070;50.922;5.430;2023-12-07T02:52:27;25.48;;;7.72;;
36001;SDS011;22070;50.922;5.430;2023-12-07T02:54:53;23.17;;;7.88;;
36001;SDS011;22070;50.922;5.430;2023-12-07T02:57:19;22.33;;;7.40;;
36001;SDS011;22070;50.922;5.430;2023-12-07T02:59:45;27.17;;;7.33;;
36001;SDS011;22070;50.922;5.430;2023-12-07T03:02:10;24.17;;;5.97;;
36001;SDS011;22070;50.922;5.430;2023-12-07T03:04:36;29.57;;;8.70;;
36001;SDS011;22070;50.922;5.430;2023-12-07T03:07:02;30.67;;;7.70;;
36001;SDS011;22070;50.922;5.430;2023-12-07T03:09:28;27.63;;;7.73;;
36001;SDS011;22070;50.922;5.430;2023-12-07T03:11:53;26.87;;;8.10;;
36001;SDS011;22070;50.922;5.430;2023-12-07T03:14:19;26.97;;;8.30;;
36001;SDS011;22070;50.922;5.430;2023-12-07T03:16:45;23.67;;;6.10;;
36001;SDS011;22070;50.922;5.430;2023-12-07T03:19:10;24.63;;;7.43;;
36001;SDS011;22070;50.922;5.430;2023-12-07T03:21:39;24.17;;;7.63;;
36001;SDS011;22070;50.922;5.430;2023-12-07T03:24:09;22.75;;;7.30;;
36001;SDS011;22070;50.922;5.430;2023-12-07T03:26:35;26.10;;;8.02;;
36001;SDS011;22070;50.922;5.430;2023-12-07T03:29:01;24.27;;;7.60;;
36001;SDS011;22070;50.922;5.430;2023-12-07T03:31:27;17.33;;;6.22;;
36001;SDS011;22070;50.922;5.430;2023-12-07T03:33:54;24.57;;;7.37;;
36001;SDS011;22070;50.922;5.430;2023-12-07T03:36:20;23.50;;;7.18;;
36001;SDS011;22070;50.922;5.430;2023-12-07T03:38:46;17.77;;;6.60;;
36001;SDS011;22070;50.922;5.430;2023-12-07T03:41:13;21.93;;;6.90;;
36001;SDS011;22070;50.922;5.430;2023-12-07T03:43:38;17.83;;;6.20;;
36001;SDS011;22070;50.922;5.430;2023-12-07T03:46:04;13.82;;;4.30;;
36001;SDS011;22070;50.922;5.430;2023-12-07T03:48:31;14.55;;;5.85;;
36001;SDS011;22070;50.922;5.430;2023-12-07T03:50:57;16.73;;;5.60;;
36001;SDS011;22070;50.922;5.430;2023-12-07T03:53:23;24.10;;;6.37;;
36001;SDS011;22070;50.922;5.430;2023-12-07T03:55:49;19.35;;;6.28;;
36001;SDS011;22070;50.922;5.430;2023-12-07T03:58:15;20.57;;;8.27;;
36001;SDS011;22070;50.922;5.430;2023-12-07T04:00:40;19.83;;;6.13;;
36001;SDS011;22070;50.922;5.430;2023-12-07T04:03:06;26.07;;;7.37;;
36001;SDS011;22070;50.922;5.430;2023-12-07T04:05:32;24.43;;;7.30;;
36001;SDS011;22070;50.922;5.430;2023-12-07T04:07:58;25.90;;;7.73;;
36001;SDS011;22070;50.922;5.430;2023-12-07T04:10:24;26.45;;;8.73;;
36001;SDS011;22070;50.922;5.430;2023-12-07T04:12:50;16.53;;;6.03;;
36001;SDS011;22070;50.922;5.430;2023-12-07T04:15:17;23.15;;;7.10;;
36001;SDS011;22070;50.922;5.430;2023-12-07T04:17:44;23.52;;;7.68;;
36001;SDS011;22070;50.922;5.430;2023-12-07T04:20:09;23.37;;;8.27;;
36001;SDS011;22070;50.922;5.430;2023-12-07T04:22:36;20.38;;;8.50;;
36001;SDS011;22070;50.922;5.430;2023-12-07T04:25:01;28.40;;;9.20;;
36001;SDS011;22070;50.922;5.430;2023-12-07T04:27:27;20.33;;;7.83;;
36001;SDS011;22070;50.922;5.430;2023-12-07T04:29:53;15.55;;;6.55;;
36001;SDS011;22070;50.922;5.430;2023-12-07T04:32:19;20.50;;;7.37;;
36001;SDS011;22070;50.922;5.430;2023-12-07T04:34:44;16.10;;;5.87;;
36001;SDS011;22070;50.922;5.430;2023-12-07T04:37:10;15.17;;;6.17;;
36001;SDS011;22070;50.922;5.430;2023-12-07T04:39:36;18.50;;;6.17;;
36001;SDS011;22070;50.922;5.430;2023-12-07T04:42:02;15.38;;;5.95;;
36001;SDS011;22070;50.922;5.430;2023-12-07T04:44:28;14.87;;;5.60;;
36001;SDS011;22070;50.922;5.430;2023-12-07T04:46:53;14.50;;;5.27;;
36001;SDS011;22070;50.922;5.430;2023-12-07T04:49:19;11.10;;;3.70;;
36001;SDS011;22070;50.922;5.430;2023-12-07T04:51:45;11.67;;;4.67;;
36001;SDS011;22070;50.922;5.430;2023-12-07T04:54:14;12.93;;;4.60;;
36001;SDS011;22070;50.922;5.430;2023-12-07T04:56:40;11.65;;;4.78;;
36001;SDS011;22070;50.922;5.430;2023-12-07T04:59:07;15.40;;;4.70;;
36001;SDS011;22070;50.922;5.430;2023-12-07T05:01:34;15.80;;;4.82;;
36001;SDS011;22070;50.922;5.430;2023-12-07T05:04:00;11.40;;;4.43;;
36001;SDS011;22070;50.922;5.430;2023-12-07T05:06:28;17.27;;;5.00;;
36001;SDS011;22070;50.922;5.430;2023-12-07T05:08:57;13.40;;;4.30;;
36001;SDS011;22070;50.922;5.430;2023-12-07T05:11:23;17.20;;;4.87;;
36001;SDS011;22070;50.922;5.430;2023-12-07T05:13:48;13.70;;;5.63;;
36001;SDS011;22070;50.922;5.430;2023-12-07T05:16:14;14.90;;;5.10;;
36001;SDS011;22070;50.922;5.430;2023-12-07T05:18:40;15.90;;;4.70;;
36001;SDS011;22070;50.922;5.430;2023-12-07T05:21:06;15.17;;;5.10;;
36001;SDS011;22070;50.922;5.430;2023-12-07T05:23:32;19.20;;;5.53;;
36001;SDS011;22070;50.922;5.430;2023-12-07T05:25:58;21.67;;;6.15;;
36001;SDS011;22070;50.922;5.430;2023-12-07T05:28:24;19.83;;;5.75;;
36001;SDS011;22070;50.922;5.430;2023-12-07T05:30:50;18.03;;;5.97;;
36001;SDS011;22070;50.922;5.430;2023-12-07T05:33:17;17.30;;;5.75;;
36001;SDS011;22070;50.922;5.430;2023-12-07T05:35:44;18.80;;;6.78;;
36001;SDS011;22070;50.922;5.430;2023-12-07T05:38:10;19.90;;;6.57;;
36001;SDS011;22070;50.922;5.430;2023-12-07T05:40:35;22.27;;;6.72;;
36001;SDS011;22070;50.922;5.430;2023-12-07T05:43:01;25.13;;;7.23;;
36001;SDS011;22070;50.922;5.430;2023-12-07T05:45:27;26.20;;;8.63;;
36001;SDS011;22070;50.922;5.430;2023-12-07T05:47:53;26.00;;;8.73;;
36001;SDS011;22070;50.922;5.430;2023-12-07T05:50:19;21.77;;;7.88;;
36001;SDS011;22070;50.922;5.430;2023-12-07T05:52:45;25.42;;;8.57;;
36001;SDS011;22070;50.922;5.430;2023-12-07T05:55:11;29.07;;;7.83;;
36001;SDS011;22070;50.922;5.430;2023-12-07T05:57:37;21.30;;;7.97;;
36001;SDS011;22070;50.922;5.430;2023-12-07T06:00:03;23.87;;;8.43;;
36001;SDS011;22070;50.922;5.430;2023-12-07T06:02:32;25.63;;;7.65;;
36001;SDS011;22070;50.922;5.430;2023-12-07T06:04:58;21.70;;;7.38;;
36001;SDS011;22070;50.922;5.430;2023-12-07T06:07:24;22.73;;;7.27;;
36001;SDS011;22070;50.922;5.430;2023-12-07T06:09:49;16.00;;;6.63;;
36001;SDS011;22070;50.922;5.430;2023-12-07T06:12:15;24.38;;;7.45;;
36001;SDS011;22070;50.922;5.430;2023-12-07T06:14:40;16.80;;;7.10;;
36001;SDS011;22070;50.922;5.430;2023-12-07T06:17:06;13.68;;;4.93;;
36001;SDS011;22070;50.922;5.430;2023-12-07T06:19:33;19.33;;;7.03;;
36001;SDS011;22070;50.922;5.430;2023-12-07T06:21:58;16.95;;;6.18;;
36001;SDS011;22070;50.922;5.430;2023-12-07T06:24:24;19.25;;;7.72;;
36001;SDS011;22070;50.922;5.430;2023-12-07T06:26:50;20.05;;;6.78;;
36001;SDS011;22070;50.922;5.430;2023-12-07T06:29:17;21.98;;;6.95;;
36001;SDS011;22070;50.922;5.430;2023-12-07T06:31:43;22.85;;;7.10;;
36001;SDS011;22070;50.922;5.430;2023-12-07T06:34:10;20.40;;;7.13;;
36001;SDS011;22070;50.922;5.430;2023-12-07T06:36:35;19.27;;;6.33;;
36001;SDS011;22070;50.922;5.430;2023-12-07T06:39:01;16.30;;;6.90;;
36001;SDS011;22070;50.922;5.430;2023-12-07T06:41:28;21.50;;;6.05;;
36001;SDS011;22070;50.922;5.430;2023-12-07T06:43:54;19.03;;;6.60;;
36001;SDS011;22070;50.922;5.430;2023-12-07T06:46:20;15.60;;;5.37;;
36001;SDS011;22070;50.922;5.430;2023-12-07T06:48:45;16.47;;;6.43;;
36001;SDS011;22070;50.922;5.430;2023-12-07T06:51:11;15.38;;;5.88;;
36001;SDS011;22070;50.922;5.430;2023-12-07T06:53:39;15.60;;;6.20;;
36001;SDS011;22070;50.922;5.430;2023-12-07T06:56:06;15.32;;;5.90;;
36001;SDS011;22070;50.922;5.430;2023-12-07T06:58:33;19.70;;;6.60;;
36001;SDS011;22070;50.922;5.430;2023-12-07T07:00:58;15.23;;;5.60;;
36001;SDS011;22070;50.922;5.430;2023-12-07T07:03:24;17.02;;;6.72;;
36001;SDS011;22070;50.922;5.430;2023-12-07T07:05:50;18.70;;;6.40;;
36001;SDS011;22070;50.922;5.430;2023-12-07T07:08:16;15.80;;;6.20;;
36001;SDS011;22070;50.922;5.430;2023-12-07T07:10:43;15.73;;;5.78;;
36001;SDS011;22070;50.922;5.430;2023-12-07T07:13:10;17.70;;;6.00;;
36001;SDS011;22070;50.922;5.430;2023-12-07T07:15:35;22.42;;;6.30;;
36001;SDS011;22070;50.922;5.430;2023-12-07T07:18:01;18.03;;;6.40;;
36001;SDS011;22070;50.922;5.430;2023-12-07T07:20:27;14.47;;;5.57;;
36001;SDS011;22070;50.922;5.430;2023-12-07T07:22:52;15.63;;;6.00;;
36001;SDS011;22070;50.922;5.430;2023-12-07T07:25:18;14.73;;;5.93;;
36001;SDS011;22070;50.922;5.430;2023-12-07T07:27:47;15.88;;;5.43;;
36001;SDS011;22070;50.922;5.430;2023-12-07T07:30:13;13.90;;;5.43;;
36001;SDS011;22070;50.922;5.430;2023-12-07T07:32:39;12.33;;;5.33;;
36001;SDS011;22070;50.922;5.430;2023-12-07T07:35:05;13.70;;;5.38;;
36001;SDS011;22070;50.922;5.430;2023-12-07T07:37:33;12.10;;;4.95;;
36001;SDS011;22070;50.922;5.430;2023-12-07T07:39:58;12.63;;;5.43;;
36001;SDS011;22070;50.922;5.430;2023-12-07T07:42:25;14.60;;;5.40;;
36001;SDS011;22070;50.922;5.430;2023-12-07T07:44:50;11.25;;;5.28;;
36001;SDS011;22070;50.922;5.430;2023-12-07T07:47:16;13.87;;;5.53;;
36001;SDS011;22070;50.922;5.430;2023-12-07T07:49:42;12.37;;;4.43;;
36001;SDS011;22070;50.922;5.430;2023-12-07T07:52:07;12.20;;;5.03;;
36001;SDS011;22070;50.922;5.430;2023-12-07T07:54:33;14.33;;;5.43;;
36001;SDS011;22070;50.922;5.430;2023-12-07T07:56:59;13.53;;;4.93;;
36001;SDS011;22070;50.922;5.430;2023-12-07T07:59:24;14.83;;;5.60;;
36001;SDS011;22070;50.922;5.430;2023-12-07T08:01:50;14.02;;;5.20;;
36001;SDS011;22070;50.922;5.430;2023-12-07T08:04:16;13.90;;;5.53;;
36001;SDS011;22070;50.922;5.430;2023-12-07T08:06:41;12.27;;;4.80;;
36001;SDS011;22070;50.922;5.430;2023-12-07T08:09:07;14.70;;;5.37;;
36001;SDS011;22070;50.922;5.430;2023-12-07T08:11:34;15.07;;;5.80;;
36001;SDS011;22070;50.922;5.430;2023-12-07T08:13:59;15.37;;;5.27;;
36001;SDS011;22070;50.922;5.430;2023-12-07T08:16:25;15.40;;;5.35;;
36001;SDS011;22070;50.922;5.430;2023-12-07T08:21:21;11.50;;;4.87;;
36001;SDS011;22070;50.922;5.430;2023-12-07T08:23:47;12.80;;;4.85;;
36001;SDS011;22070;50.922;5.430;2023-12-07T08:26:14;13.80;;;5.70;;
36001;SDS011;22070;50.922;5.430;2023-12-07T08:28:40;13.55;;;4.72;;
36001;SDS011;22070;50.922;5.430;2023-12-07T08:31:06;11.85;;;4.35;;
36001;SDS011;22070;50.922;5.430;2023-12-07T08:33:32;10.90;;;4.97;;
36001;SDS011;22070;50.922;5.430;2023-12-07T08:36:01;17.27;;;4.70;;
36001;SDS011;22070;50.922;5.430;2023-12-07T08:38:27;11.65;;;5.15;;
36001;SDS011;22070;50.922;5.430;2023-12-07T08:40:52;11.57;;;4.73;;
36001;SDS011;22070;50.922;5.430;2023-12-07T08:43:20;14.10;;;5.30;;
36001;SDS011;22070;50.922;5.430;2023-12-07T08:45:50;9.57;;;4.18;;
36001;SDS011;22070;50.922;5.430;2023-12-07T08:50:42;11.65;;;4.10;;
36001;SDS011;22070;50.922;5.430;2023-12-07T08:53:08;13.30;;;4.47;;
36001;SDS011;22070;50.922;5.430;2023-12-07T08:55:34;11.60;;;4.50;;
36001;SDS011;22070;50.922;5.430;2023-12-07T08:57:59;11.43;;;4.87;;
36001;SDS011;22070;50.922;5.430;2023-12-07T09:00:25;11.13;;;4.15;;
36001;SDS011;22070;50.922;5.430;2023-12-07T09:02:51;9.00;;;4.78;;
36001;SDS011;22070;50.922;5.430;2023-12-07T09:05:17;11.05;;;4.53;;
36001;SDS011;22070;50.922;5.430;2023-12-07T09:07:43;11.55;;;4.40;;
36001;SDS011;22070;50.922;5.430;2023-12-07T09:10:09;9.33;;;4.30;;
36001;SDS011;22070;50.922;5.430;2023-12-07T09:12:35;9.10;;;4.05;;
36001;SDS011;22070;50.922;5.430;2023-12-07T09:15:04;11.55;;;4.47;;
36001;SDS011;22070;50.922;5.430;2023-12-07T09:17:32;10.10;;;4.10;;
36001;SDS011;22070;50.922;5.430;2023-12-07T09:19:58;13.25;;;4.50;;
36001;SDS011;22070;50.922;5.430;2023-12-07T09:22:23;9.70;;;4.27;;
36001;SDS011;22070;50.922;5.430;2023-12-07T09:24:50;9.02;;;4.00;;
36001;SDS011;22070;50.922;5.430;2023-12-07T09:27:15;12.50;;;4.88;;
36001;SDS011;22070;50.922;5.430;2023-12-07T09:29:41;9.27;;;3.60;;
36001;SDS011;22070;50.922;5.430;2023-12-07T09:32:07;9.32;;;3.83;;
36001;SDS011;22070;50.922;5.430;2023-12-07T09:34:33;11.53;;;4.70;;
36001;SDS011;22070;50.922;5.430;2023-12-07T09:37:08;7.37;;;3.53;;
36001;SDS011;22070;50.922;5.430;2023-12-07T09:39:35;13.05;;;4.75;;
36001;SDS011;22070;50.922;5.430;2023-12-07T09:42:01;10.37;;;4.60;;
36001;SDS011;22070;50.922;5.430;2023-12-07T09:44:27;9.40;;;4.32;;
36001;SDS011;22070;50.922;5.430;2023-12-07T09:46:53;9.93;;;3.80;;
36001;SDS011;22070;50.922;5.430;2023-12-07T09:49:19;11.57;;;4.25;;
36001;SDS011;22070;50.922;5.430;2023-12-07T09:51:46;10.02;;;4.13;;
36001;SDS011;22070;50.922;5.430;2023-12-07T09:54:12;9.93;;;4.07;;
36001;SDS011;22070;50.922;5.430;2023-12-07T09:56:38;11.93;;;4.53;;
36001;SDS011;22070;50.922;5.430;2023-12-07T09:59:04;10.33;;;4.23;;
36001;SDS011;22070;50.922;5.430;2023-12-07T10:01:32;14.10;;;4.28;;
36001;SDS011;22070;50.922;5.430;2023-12-07T10:06:45;11.07;;;3.78;;
36001;SDS011;22070;50.922;5.430;2023-12-07T10:09:13;10.75;;;4.18;;
36001;SDS011;22070;50.922;5.430;2023-12-07T10:11:39;19.73;;;4.30;;
36001;SDS011;22070;50.922;5.430;2023-12-07T10:14:08;7.72;;;3.45;;
36001;SDS011;22070;50.922;5.430;2023-12-07T10:16:34;8.27;;;3.90;;
36001;SDS011;22070;50.922;5.430;2023-12-07T10:19:16;10.25;;;4.15;;
36001;SDS011;22070;50.922;5.430;2023-12-07T10:21:50;10.90;;;4.15;;
36001;SDS011;22070;50.922;5.430;2023-12-07T10:24:20;11.85;;;4.88;;
36001;SDS011;22070;50.922;5.430;2023-12-07T10:26:47;12.35;;;4.55;;
36001;SDS011;22070;50.922;5.430;2023-12-07T10:29:13;13.30;;;4.80;;
36001;SDS011;22070;50.922;5.430;2023-12-07T10:31:39;9.65;;;4.57;;
36001;SDS011;22070;50.922;5.430;2023-12-07T10:34:05;11.63;;;4.53;;
36001;SDS011;22070;50.922;5.430;2023-12-07T10:36:31;12.85;;;4.72;;
36001;SDS011;22070;50.922;5.430;2023-12-07T10:39:00;12.35;;;3.95;;
36001;SDS011;22070;50.922;5.430;2023-12-07T10:41:26;19.27;;;5.35;;
36001;SDS011;22070;50.922;5.430;2023-12-07T10:43:53;11.68;;;5.05;;
36001;SDS011;22070;50.922;5.430;2023-12-07T10:46:22;13.63;;;4.32;;
36001;SDS011;22070;50.922;5.430;2023-12-07T10:48:48;11.02;;;4.07;;
36001;SDS011;22070;50.922;5.430;2023-12-07T10:51:37;7.93;;;3.78;;
36001;SDS011;22070;50.922;5.430;2023-12-07T10:54:06;10.70;;;4.10;;
36001;SDS011;22070;50.922;5.430;2023-12-07T10:56:43;10.43;;;4.38;;
36001;SDS011;22070;50.922;5.430;2023-12-07T10:59:10;12.20;;;4.80;;
36001;SDS011;22070;50.922;5.430;2023-12-07T11:01:41;10.10;;;4.38;;
36001;SDS011;22070;50.922;5.430;2023-12-07T11:04:10;12.07;;;4.38;;
36001;SDS011;22070;50.922;5.430;2023-12-07T11:06:37;8.32;;;4.03;;
36001;SDS011;22070;50.922;5.430;2023-12-07T11:09:08;16.35;;;4.85;;
36001;SDS011;22070;50.922;5.430;2023-12-07T11:11:39;11.43;;;4.45;;
36001;SDS011;22070;50.922;5.430;2023-12-07T11:14:10;14.13;;;4.38;;
36001;SDS011;22070;50.922;5.430;2023-12-07T11:16:42;7.40;;;3.80;;
36001;SDS011;22070;50.922;5.430;2023-12-07T11:19:34;8.32;;;3.85;;
36001;SDS011;22070;50.922;5.430;2023-12-07T11:21:57;9.18;;;4.25;;
36001;SDS011;22070;50.922;5.430;2023-12-07T11:24:24;7.55;;;3.90;;
36001;SDS011;22070;50.922;5.430;2023-12-07T11:26:54;10.98;;;4.32;;
36001;SDS011;22070;50.922;5.430;2023-12-07T11:29:20;11.02;;;4.60;;
36001;SDS011;22070;50.922;5.430;2023-12-07T11:31:48;10.45;;;3.85;;
36001;SDS011;22070;50.922;5.430;2023-12-07T11:34:33;8.65;;;4.25;;
36001;SDS011;22070;50.922;5.430;2023-12-07T11:37:06;12.23;;;4.53;;
36001;SDS011;22070;50.922;5.430;2023-12-07T11:39:39;10.55;;;4.45;;
36001;SDS011;22070;50.922;5.430;2023-12-07T11:42:13;10.23;;;4.10;;
36001;SDS011;22070;50.922;5.430;2023-12-07T11:44:41;9.75;;;4.00;;
36001;SDS011;22070;50.922;5.430;2023-12-07T11:47:10;13.73;;;5.03;;
36001;SDS011;22070;50.922;5.430;2023-12-07T11:49:41;9.55;;;4.00;;
36001;SDS011;22070;50.922;5.430;2023-12-07T11:54:39;9.20;;;3.65;;
36001;SDS011;22070;50.922;5.430;2023-12-07T11:57:06;10.88;;;4.10;;
36001;SDS011;22070;50.922;5.430;2023-12-07T11:59:31;12.50;;;4.05;;
36001;SDS011;22070;50.922;5.430;2023-12-07T12:02:01;9.75;;;4.07;;
36001;SDS011;22070;50.922;5.430;2023-12-07T12:04:29;32.22;;;5.60;;
36001;SDS011;22070;50.922;5.430;2023-12-07T12:06:55;10.57;;;4.03;;
36001;SDS011;22070;50.922;5.430;2023-12-07T12:09:22;13.25;;;4.43;;
36001;SDS011;22070;50.922;5.430;2023-12-07T12:11:49;15.55;;;4.45;;
36001;SDS011;22070;50.922;5.430;2023-12-07T12:14:18;13.20;;;4.35;;
36001;SDS011;22070;50.922;5.430;2023-12-07T12:16:45;8.38;;;3.95;;
36001;SDS011;22070;50.922;5.430;2023-12-07T12:19:11;9.48;;;4.30;;
36001;SDS011;22070;50.922;5.430;2023-12-07T12:21:39;6.35;;;3.70;;
36001;SDS011;22070;50.922;5.430;2023-12-07T12:24:08;9.23;;;4.00;;
36001;SDS011;22070;50.922;5.430;2023-12-07T12:26:36;7.50;;;3.88;;
36001;SDS011;22070;50.922;5.430;2023-12-07T12:29:04;7.75;;;3.88;;
36001;SDS011;22070;50.922;5.430;2023-12-07T12:31:30;7.22;;;3.25;;
36001;SDS011;22070;50.922;5.430;2023-12-07T12:33:56;6.72;;;3.13;;
36001;SDS011;22070;50.922;5.430;2023-12-07T12:36:22;7.57;;;4.00;;
36001;SDS011;22070;50.922;5.430;2023-12-07T12:38:51;9.20;;;4.00;;
36001;SDS011;22070;50.922;5.430;2023-12-07T12:41:20;7.28;;;3.08;;
36001;SDS011;22070;50.922;5.430;2023-12-07T12:43:47;9.73;;;3.63;;
36001;SDS011;22070;50.922;5.430;2023-12-07T12:46:13;7.20;;;3.35;;
36001;SDS011;22070;50.922;5.430;2023-12-07T12:49:02;7.90;;;3.30;;
36001;SDS011;22070;50.922;5.430;2023-12-07T12:51:27;7.85;;;3.30;;
36001;SDS011;22070;50.922;5.430;2023-12-07T12:53:56;5.80;;;3.17;;
36001;SDS011;22070;50.922;5.430;2023-12-07T12:56:24;7.88;;;3.40;;
36001;SDS011;22070;50.922;5.430;2023-12-07T12:58:53;6.18;;;3.17;;
36001;SDS011;22070;50.922;5.430;2023-12-07T13:01:22;7.72;;;2.72;;
36001;SDS011;22070;50.922;5.430;2023-12-07T13:03:47;4.90;;;3.05;;
36001;SDS011;22070;50.922;5.430;2023-12-07T13:06:14;5.28;;;3.22;;
36001;SDS011;22070;50.922;5.430;2023-12-07T13:11:12;8.55;;;3.30;;
36001;SDS011;22070;50.922;5.430;2023-12-07T13:13:40;5.10;;;2.67;;
36001;SDS011;22070;50.922;5.430;2023-12-07T13:16:06;7.63;;;3.13;;
36001;SDS011;22070;50.922;5.430;2023-12-07T13:18:32;6.05;;;3.25;;
36001;SDS011;22070;50.922;5.430;2023-12-07T13:20:57;6.97;;;3.03;;
36001;SDS011;22070;50.922;5.430;2023-12-07T13:25:50;6.43;;;3.22;;
36001;SDS011;22070;50.922;5.430;2023-12-07T13:28:16;6.43;;;3.33;;
36001;SDS011;22070;50.922;5.430;2023-12-07T13:30:42;6.18;;;2.63;;
36001;SDS011;22070;50.922;5.430;2023-12-07T13:33:08;6.33;;;3.10;;
36001;SDS011;22070;50.922;5.430;2023-12-07T13:35:34;4.80;;;2.10;;
36001;SDS011;22070;50.922;5.430;2023-12-07T13:38:00;5.57;;;2.78;;
36001;SDS011;22070;50.922;5.430;2023-12-07T13:40:26;10.02;;;3.55;;
36001;SDS011;22070;50.922;5.430;2023-12-07T13:42:52;5.53;;;2.47;;
36001;SDS011;22070;50.922;5.430;2023-12-07T13:45:18;13.47;;;3.77;;
36001;SDS011;22070;50.922;5.430;2023-12-07T13:47:44;7.35;;;2.88;;
36001;SDS011;22070;50.922;5.430;2023-12-07T13:50:10;5.57;;;3.13;;
36001;SDS011;22070;50.922;5.430;2023-12-07T13:52:36;8.97;;;3.37;;
36001;SDS011;22070;50.922;5.430;2023-12-07T13:55:03;6.90;;;2.80;;
36001;SDS011;22070;50.922;5.430;2023-12-07T13:57:29;5.05;;;3.13;;
36001;SDS011;22070;50.922;5.430;2023-12-07T13:59:55;6.25;;;2.80;;
36001;SDS011;22070;50.922;5.430;2023-12-07T14:02:21;5.07;;;2.78;;
36001;SDS011;22070;50.922;5.430;2023-12-07T14:04:47;6.70;;;3.10;;
36001;SDS011;22070;50.922;5.430;2023-12-07T14:07:15;6.03;;;3.33;;
36001;SDS011;22070;50.922;5.430;2023-12-07T14:09:46;7.28;;;3.13;;
36001;SDS011;22070;50.922;5.430;2023-12-07T14:12:14;7.05;;;3.25;;
36001;SDS011;22070;50.922;5.430;2023-12-07T14:14:40;7.27;;;2.80;;
36001;SDS011;22070;50.922;5.430;2023-12-07T14:17:10;5.88;;;2.60;;
36001;SDS011;22070;50.922;5.430;2023-12-07T14:19:36;9.63;;;2.65;;
36001;SDS011;22070;50.922;5.430;2023-12-07T14:22:03;5.65;;;2.72;;
36001;SDS011;22070;50.922;5.430;2023-12-07T14:24:29;5.47;;;2.83;;
36001;SDS011;22070;50.922;5.430;2023-12-07T14:26:56;6.32;;;2.63;;
36001;SDS011;22070;50.922;5.430;2023-12-07T14:29:22;4.90;;;2.83;;
36001;SDS011;22070;50.922;5.430;2023-12-07T14:31:50;6.13;;;2.80;;
36001;SDS011;22070;50.922;5.430;2023-12-07T14:34:16;4.03;;;2.65;;
36001;SDS011;22070;50.922;5.430;2023-12-07T14:39:11;6.22;;;2.47;;
36001;SDS011;22070;50.922;5.430;2023-12-07T14:41:42;5.63;;;3.10;;
36001;SDS011;22070;50.922;5.430;2023-12-07T14:44:16;6.40;;;3.22;;
36001;SDS011;22070;50.922;5.430;2023-12-07T14:46:42;8.30;;;3.80;;
36001;SDS011;22070;50.922;5.430;2023-12-07T14:49:09;7.72;;;3.45;;
36001;SDS011;22070;50.922;5.430;2023-12-07T14:51:37;4.93;;;3.20;;
36001;SDS011;22070;50.922;5.430;2023-12-07T14:54:04;4.97;;;2.72;;
36001;SDS011;22070;50.922;5.430;2023-12-07T14:56:30;12.20;;;2.83;;
36001;SDS011;22070;50.922;5.430;2023-12-07T14:58:55;9.60;;;2.70;;